Time;durP1;ratioP1;P1;durP2;ratioP2;P2;SDS_P1;SDS_P2;PMS_P1;PMS_P2;Temp;Humidity;BMP_temperature;BMP_pressure;BME280_temperature;BME280_humidity;BME280_pressure;Samples;Min_cycle;Max_cycle;Signal;HPM_P1;HPM_P2
2020/12/02 00:02:58;;;;;;;10.82;3.63;;;8.90;57.50;;;;;;6219941;28;20152;-73
2020/12/02 00:06:01;;;;;;;7.47;4.03;;;8.80;57.60;;;;;;6218641;28;20112;-73
2020/12/02 00:09:17;;;;;;;9.32;4.63;;;8.80;57.70;;;;;;6218283;28;20072;-71
2020/12/02 00:12:18;;;;;;;11.00;5.38;;;8.80;57.80;;;;;;6237207;28;20462;-72
2020/12/02 00:15:18;;;;;;;9.45;4.05;;;8.80;58.10;;;;;;6235600;28;20052;-72
2020/12/02 00:18:20;;;;;;;12.43;4.78;;;8.70;58.10;;;;;;6219965;28;20109;-73
2020/12/02 00:21:24;;;;;;;8.30;4.00;;;8.80;58.10;;;;;;6217873;28;20049;-72
2020/12/02 00:24:25;;;;;;;8.95;4.28;;;8.70;58.20;;;;;;6219901;28;20030;-72
2020/12/02 00:27:29;;;;;;;9.55;4.22;;;8.80;58.20;;;;;;6249279;28;20034;-73
2020/12/02 00:30:33;;;;;;;7.47;4.05;;;8.70;58.30;;;;;;6249785;28;20040;-72
2020/12/02 00:33:34;;;;;;;6.70;3.35;;;8.70;58.20;;;;;;6224541;28;20050;-73
2020/12/02 00:36:35;;;;;;;5.80;3.63;;;8.70;58.20;;;;;;6220240;28;20037;-73
2020/12/02 00:39:36;;;;;;;7.55;3.47;;;8.80;58.10;;;;;;6201096;28;20160;-73
2020/12/02 00:42:37;;;;;;;8.93;3.58;;;8.80;58.00;;;;;;6219162;28;20038;-73
2020/12/02 00:45:38;;;;;;;7.57;3.70;;;8.90;57.90;;;;;;6222488;28;20116;-73
2020/12/02 00:48:43;;;;;;;5.50;2.97;;;8.90;57.70;;;;;;6226912;28;20064;-72
2020/12/02 00:51:44;;;;;;;6.72;3.42;;;9.00;57.70;;;;;;6241274;28;20116;-72
2020/12/02 00:54:45;;;;;;;8.93;3.70;;;9.00;58.10;;;;;;6238638;28;20029;-72
2020/12/02 00:57:47;;;;;;;7.32;3.28;;;9.00;57.50;;;;;;6254977;28;20115;-72
2020/12/02 01:00:48;;;;;;;6.07;3.33;;;9.00;57.40;;;;;;6243103;28;20041;-72
2020/12/02 01:03:50;;;;;;;5.38;2.75;;;9.00;57.40;;;;;;6238156;28;20045;-72
2020/12/02 01:06:53;;;;;;;7.57;3.33;;;9.00;57.40;;;;;;6258829;28;20410;-72
2020/12/02 01:09:55;;;;;;;7.72;3.40;;;9.00;57.40;;;;;;6244360;28;20045;-72
2020/12/02 01:12:56;;;;;;;6.68;3.38;;;8.90;57.30;;;;;;6242783;28;20053;-72
2020/12/02 01:15:58;;;;;;;7.50;3.30;;;8.90;57.30;;;;;;6242398;28;20037;-72
2020/12/02 01:19:00;;;;;;;6.38;2.83;;;8.90;57.30;;;;;;6244017;28;20045;-73
2020/12/02 01:22:03;;;;;;;6.10;3.35;;;8.90;57.30;;;;;;6232460;28;20057;-72
2020/12/02 01:25:15;;;;;;;7.28;3.55;;;8.90;57.30;;;;;;6239705;28;20116;-73
2020/12/02 01:28:22;;;;;;;6.15;2.85;;;8.90;57.40;;;;;;6224311;28;20097;-72
2020/12/02 01:31:25;;;;;;;8.82;3.53;;;8.90;57.40;;;;;;6219217;28;20112;-72
2020/12/02 01:34:26;;;;;;;8.73;2.65;;;9.00;57.30;;;;;;6215969;28;20041;-72
2020/12/02 01:37:32;;;;;;;4.22;2.70;;;9.00;57.20;;;;;;6217898;28;20045;-72
2020/12/02 01:40:35;;;;;;;7.10;3.47;;;9.00;57.10;;;;;;6234693;28;20038;-72
2020/12/02 01:43:36;;;;;;;6.65;3.63;;;8.90;57.00;;;;;;6257061;28;20382;-72
2020/12/02 01:46:47;;;;;;;7.88;3.80;;;8.90;57.00;;;;;;6243631;28;20091;-72
2020/12/02 01:50:35;;;;;;;8.23;3.40;;;8.90;57.20;;;;;;6251483;28;20132;-72
2020/12/02 01:53:45;;;;;;;8.85;4.20;;;8.90;57.30;;;;;;6208821;28;20041;-72
2020/12/02 01:57:11;;;;;;;7.03;3.38;;;9.00;57.30;;;;;;6241466;28;20112;-72
2020/12/02 02:00:16;;;;;;;5.22;3.10;;;8.90;57.30;;;;;;6241188;28;20053;-73
2020/12/02 02:03:18;;;;;;;6.45;4.20;;;9.00;57.40;;;;;;6239979;28;20033;-72
2020/12/02 02:06:27;;;;;;;9.02;3.40;;;8.90;57.40;;;;;;6227334;28;20164;-72
2020/12/02 02:09:29;;;;;;;5.07;2.40;;;9.00;57.50;;;;;;6242617;28;20137;-72
2020/12/02 02:12:35;;;;;;;5.55;3.35;;;9.00;57.40;;;;;;6240175;28;20034;-72
2020/12/02 02:15:47;;;;;;;5.38;2.33;;;9.00;57.20;;;;;;6243370;28;20037;-72
2020/12/02 02:18:48;;;;;;;5.32;3.30;;;9.00;57.10;;;;;;6221268;28;20037;-72
2020/12/02 02:21:53;;;;;;;6.95;3.05;;;9.00;57.10;;;;;;6240455;28;20052;-72
2020/12/02 02:24:56;;;;;;;4.90;3.15;;;9.00;57.10;;;;;;6239050;28;20316;-72
2020/12/02 02:27:59;;;;;;;5.22;2.80;;;9.00;57.10;;;;;;6243426;28;20095;-74
2020/12/02 02:31:01;;;;;;;5.38;3.47;;;9.00;57.10;;;;;;6246127;28;20030;-72
2020/12/02 02:34:02;;;;;;;9.23;4.20;;;9.00;57.10;;;;;;6240080;28;20061;-73
2020/12/02 02:37:09;;;;;;;6.32;3.45;;;9.00;57.10;;;;;;6244811;28;20042;-73
2020/12/02 02:40:12;;;;;;;8.00;3.53;;;9.10;57.00;;;;;;6224218;28;20050;-71
2020/12/02 02:43:13;;;;;;;10.07;4.22;;;9.10;57.00;;;;;;6244517;28;20039;-73
2020/12/02 02:46:14;;;;;;;10.93;3.83;;;9.00;57.00;;;;;;6261665;28;20081;-73
2020/12/02 02:49:15;;;;;;;6.47;3.72;;;9.10;57.00;;;;;;6245081;28;20506;-73
2020/12/02 02:52:17;;;;;;;10.85;4.20;;;9.10;57.00;;;;;;6243652;28;20042;-73
2020/12/02 02:55:21;;;;;;;7.03;3.42;;;9.10;56.80;;;;;;6260270;28;20042;-72
2020/12/02 02:58:26;;;;;;;7.72;3.40;;;9.20;56.80;;;;;;6246126;28;20037;-73
2020/12/02 03:01:27;;;;;;;7.07;3.63;;;9.20;56.70;;;;;;6260613;28;20187;-73
2020/12/02 03:04:28;;;;;;;6.93;3.88;;;9.10;56.60;;;;;;6245470;28;20029;-72
2020/12/02 03:07:29;;;;;;;7.93;3.75;;;9.20;56.70;;;;;;6249499;28;20049;-73
2020/12/02 03:10:34;;;;;;;7.88;4.50;;;9.20;56.60;;;;;;6245391;28;20442;-72
2020/12/02 03:13:37;;;;;;;9.98;3.95;;;9.20;56.70;;;;;;6246983;28;20072;-71
2020/12/02 03:16:51;;;;;;;13.13;5.45;;;9.30;56.90;;;;;;6251205;28;20458;-71
2020/12/02 03:20:00;;;;;;;10.65;4.60;;;9.20;57.00;;;;;;6244929;28;20050;-72
2020/12/02 03:23:02;;;;;;;11.65;4.55;;;9.20;57.10;;;;;;6236024;28;20041;-72
2020/12/02 03:26:05;;;;;;;11.65;4.72;;;9.20;57.20;;;;;;6221243;28;20065;-72
2020/12/02 03:29:08;;;;;;;9.38;5.15;;;9.20;57.30;;;;;;6221908;28;20129;-72
2020/12/02 03:32:09;;;;;;;12.30;5.28;;;9.20;57.30;;;;;;6221019;28;20125;-72
2020/12/02 03:35:10;;;;;;;9.48;5.22;;;9.20;57.30;;;;;;6236542;28;20041;-72
2020/12/02 03:38:11;;;;;;;10.80;5.32;;;9.20;57.40;;;;;;6253165;28;20037;-72
2020/12/02 03:41:12;;;;;;;13.38;5.85;;;9.30;57.40;;;;;;6221557;28;20410;-72
2020/12/02 03:44:13;;;;;;;13.73;6.18;;;9.30;57.50;;;;;;6231030;28;20028;-73
2020/12/02 03:47:14;;;;;;;10.45;5.57;;;9.30;57.50;;;;;;6257738;28;20382;-72
2020/12/02 03:50:16;;;;;;;11.50;4.97;;;9.30;57.50;;;;;;6244418;28;20037;-72
2020/12/02 03:53:18;;;;;;;11.57;5.72;;;9.30;57.50;;;;;;6241151;28;20028;-72
2020/12/02 03:56:19;;;;;;;10.63;4.68;;;9.30;57.50;;;;;;6273415;28;20037;-72
2020/12/02 03:59:21;;;;;;;10.52;5.43;;;9.40;57.70;;;;;;6253519;28;20053;-71
2020/12/02 04:02:23;;;;;;;11.95;6.18;;;9.30;57.50;;;;;;6245351;28;20041;-72
2020/12/02 04:05:23;;;;;;;13.32;6.28;;;9.40;57.50;;;;;;6244046;28;20045;-72
2020/12/02 04:08:24;;;;;;;8.93;4.10;;;9.30;57.40;;;;;;6244401;28;20077;-72
2020/12/02 04:11:25;;;;;;;10.20;3.72;;;9.30;57.40;;;;;;6260743;28;20041;-72
2020/12/02 04:14:26;;;;;;;9.25;4.55;;;9.30;57.40;;;;;;6243674;28;20450;-72
2020/12/02 04:17:27;;;;;;;7.05;3.75;;;9.30;57.30;;;;;;6259459;28;20114;-73
2020/12/02 04:20:28;;;;;;;8.45;3.88;;;9.30;57.10;;;;;;6243610;28;20433;-73
2020/12/02 04:23:29;;;;;;;8.77;3.00;;;9.30;57.00;;;;;;6258356;28;20096;-73
2020/12/02 04:26:30;;;;;;;6.10;3.30;;;9.30;57.00;;;;;;6243835;28;20033;-72
2020/12/02 04:29:31;;;;;;;7.43;4.20;;;9.30;56.70;;;;;;6227458;28;20048;-73
2020/12/02 04:32:32;;;;;;;8.95;3.88;;;9.30;56.70;;;;;;6221560;28;20410;-72
2020/12/02 04:35:33;;;;;;;9.82;4.55;;;9.30;56.60;;;;;;6237546;28;20076;-72
2020/12/02 04:38:33;;;;;;;8.85;3.80;;;9.30;56.70;;;;;;6218310;28;20133;-73
2020/12/02 04:41:34;;;;;;;9.85;4.60;;;9.30;56.70;;;;;;6218137;28;20451;-73
2020/12/02 04:44:36;;;;;;;9.00;4.65;;;9.30;56.70;;;;;;6219795;28;20091;-72
2020/12/02 04:47:40;;;;;;;10.65;4.45;;;9.30;56.80;;;;;;6230360;28;20426;-72
2020/12/02 04:50:42;;;;;;;10.90;5.30;;;9.30;56.80;;;;;;6215536;28;20026;-72
2020/12/02 04:53:47;;;;;;;13.50;6.10;;;9.30;56.90;;;;;;6217342;28;20033;-72
2020/12/02 04:56:49;;;;;;;12.98;5.95;;;9.30;57.20;;;;;;6216866;28;20085;-72
2020/12/02 04:59:50;;;;;;;13.57;5.78;;;9.20;57.30;;;;;;6217914;28;20045;-72
2020/12/02 05:02:51;;;;;;;14.25;6.85;;;9.10;57.40;;;;;;6218726;28;20048;-72
2020/12/02 05:06:00;;;;;;;13.68;5.03;;;9.20;57.60;;;;;;6218105;28;20386;-71
2020/12/02 05:09:11;;;;;;;7.68;4.00;;;9.10;57.60;;;;;;6225517;28;20076;-72
2020/12/02 05:12:20;;;;;;;15.00;5.75;;;9.10;57.60;;;;;;6219225;28;20493;-72
2020/12/02 05:15:27;;;;;;;7.93;4.68;;;9.00;57.70;;;;;;6236331;28;20040;-72
2020/12/02 05:18:28;;;;;;;7.15;3.80;;;9.00;57.80;;;;;;6219872;28;20046;-72
2020/12/02 05:21:32;;;;;;;7.40;3.70;;;9.00;57.70;;;;;;6232570;28;20103;-74
2020/12/02 05:24:48;;;;;;;9.18;4.25;;;8.90;57.60;;;;;;6232832;28;20037;-72
2020/12/02 05:28:18;;;;;;;12.88;4.65;;;8.90;57.60;;;;;;6234696;28;20029;-73
2020/12/02 05:31:31;;;;;;;10.82;5.03;;;8.80;57.70;;;;;;6201803;28;20165;-73
2020/12/02 05:34:33;;;;;;;8.48;5.20;;;8.80;58.00;;;;;;6225230;28;20423;-72
2020/12/02 05:37:40;;;;;;;14.88;6.18;;;8.80;58.10;;;;;;6219976;28;20108;-74
2020/12/02 05:40:41;;;;;;;15.52;7.03;;;8.80;58.20;;;;;;6243568;28;20113;-72
2020/12/02 05:43:53;;;;;;;13.93;6.03;;;8.90;58.20;;;;;;6220029;28;20099;-72
2020/12/02 05:46:57;;;;;;;13.05;6.82;;;8.90;58.20;;;;;;6218993;28;20112;-71
2020/12/02 05:49:59;;;;;;;6.20;3.50;;;8.90;58.20;;;;;;6219248;28;20034;-72
2020/12/02 05:53:29;;;;;;;9.15;3.88;;;9.00;58.10;;;;;;6219017;28;20038;-72
2020/12/02 05:56:30;;;;;;;12.13;3.97;;;8.90;57.90;;;;;;6217237;28;20065;-72
2020/12/02 05:59:30;;;;;;;6.57;3.58;;;8.90;57.80;;;;;;6236801;28;20422;-72
2020/12/02 06:02:32;;;;;;;7.32;3.67;;;8.90;57.80;;;;;;6244744;28;20129;-72
2020/12/02 06:05:33;;;;;;;7.40;3.25;;;8.90;57.80;;;;;;6241096;28;20056;-72
2020/12/02 06:08:35;;;;;;;11.43;5.18;;;8.90;57.70;;;;;;6242821;28;20033;-72
2020/12/02 06:11:37;;;;;;;10.82;5.47;;;8.90;57.80;;;;;;6259729;28;20033;-73
2020/12/02 06:14:39;;;;;;;9.35;4.30;;;8.90;57.80;;;;;;6242423;28;20083;-72
2020/12/02 06:17:40;;;;;;;8.63;4.35;;;8.90;57.80;;;;;;6244670;28;20470;-73
2020/12/02 06:20:45;;;;;;;10.38;5.05;;;8.90;57.70;;;;;;6243776;28;20037;-74
2020/12/02 06:23:54;;;;;;;15.30;6.70;;;8.90;57.80;;;;;;6233416;28;20042;-72
2020/12/02 06:26:55;;;;;;;13.77;6.93;;;8.90;57.90;;;;;;6248121;28;20059;-72
2020/12/02 06:30:05;;;;;;;15.25;6.38;;;8.90;57.90;;;;;;6218844;28;20034;-73
2020/12/02 06:33:31;;;;;;;18.65;6.85;;;8.90;58.00;;;;;;6225711;28;20033;-73
2020/12/02 06:36:36;;;;;;;15.82;6.57;;;8.90;58.10;;;;;;6236998;28;20489;-73
2020/12/02 06:39:42;;;;;;;15.80;7.95;;;8.90;58.20;;;;;;6220490;28;20037;-74
2020/12/02 06:42:44;;;;;;;15.68;7.43;;;8.90;58.40;;;;;;6221725;28;20117;-72
2020/12/02 06:45:45;;;;;;;16.17;7.15;;;9.00;58.40;;;;;;6222745;28;20045;-73
2020/12/02 06:48:49;;;;;;;11.45;6.00;;;9.00;58.40;;;;;;6206163;28;20037;-72
2020/12/02 06:52:02;;;;;;;16.38;6.95;;;9.00;58.30;;;;;;6223234;28;20481;-72
2020/12/02 06:55:12;;;;;;;13.93;6.78;;;9.00;58.20;;;;;;6259068;28;20045;-72
2020/12/02 06:58:16;;;;;;;18.13;7.50;;;9.10;58.20;;;;;;6247182;28;20104;-72
2020/12/02 07:01:21;;;;;;;16.05;7.43;;;9.10;58.20;;;;;;6239761;28;20029;-72
2020/12/02 07:04:23;;;;;;;18.17;7.03;;;9.10;58.10;;;;;;6245013;28;20183;-73
2020/12/02 07:07:24;;;;;;;14.80;6.90;;;9.20;58.20;;;;;;6246459;28;20040;-72
2020/12/02 07:10:25;;;;;;;14.90;6.82;;;9.20;58.20;;;;;;6247488;28;20057;-72
2020/12/02 07:13:29;;;;;;;16.20;7.38;;;9.20;58.10;;;;;;6247905;28;20124;-73
2020/12/02 07:16:33;;;;;;;13.13;6.80;;;9.20;58.10;;;;;;6247146;28;20038;-73
2020/12/02 07:19:39;;;;;;;19.40;7.13;;;9.10;58.00;;;;;;6246124;28;20025;-72
2020/12/02 07:22:52;;;;;;;10.07;5.50;;;9.10;58.00;;;;;;6262253;28;20041;-72
2020/12/02 07:25:53;;;;;;;11.63;5.50;;;9.20;58.10;;;;;;6259911;28;20474;-72
2020/12/02 07:29:10;;;;;;;11.30;5.57;;;9.20;58.50;;;;;;6242216;28;20033;-73
2020/12/02 07:32:11;;;;;;;12.45;6.07;;;9.20;57.90;;;;;;6246149;28;20049;-72
2020/12/02 07:35:16;;;;;;;13.27;5.55;;;9.20;57.50;;;;;;6262635;28;20113;-72
2020/12/02 07:38:17;;;;;;;9.75;5.00;;;9.20;57.50;;;;;;6263241;28;20467;-72
2020/12/02 07:41:20;;;;;;;12.32;6.40;;;9.10;57.30;;;;;;6246184;28;20080;-72
2020/12/02 07:44:22;;;;;;;13.23;6.07;;;9.10;57.40;;;;;;6262154;28;20142;-72
2020/12/02 07:47:23;;;;;;;11.98;5.53;;;9.10;57.50;;;;;;6261402;28;20060;-72
2020/12/02 07:50:31;;;;;;;14.35;6.07;;;9.10;57.60;;;;;;6210493;28;20049;-73
2020/12/02 07:53:47;;;;;;;14.45;6.55;;;9.10;57.60;;;;;;6237316;28;20033;-72
2020/12/02 07:56:50;;;;;;;16.00;7.43;;;9.10;57.60;;;;;;6259930;28;20458;-71
2020/12/02 08:00:06;;;;;;;13.35;6.30;;;9.10;57.60;;;;;;6274697;28;20366;-72
2020/12/02 08:03:37;;;;;;;13.57;6.68;;;9.20;57.60;;;;;;6242946;28;20497;-72
2020/12/02 08:06:47;;;;;;;17.35;7.30;;;9.20;57.60;;;;;;6249829;28;20041;-72
2020/12/02 08:09:51;;;;;;;18.58;6.95;;;9.20;58.10;;;;;;6244791;28;20126;-74
2020/12/02 08:12:52;;;;;;;12.55;5.90;;;9.20;57.50;;;;;;6257746;28;20049;-72
2020/12/02 08:15:58;;;;;;;8.40;4.65;;;9.30;57.50;;;;;;6244696;28;20037;-74
2020/12/02 08:18:59;;;;;;;11.50;4.88;;;9.30;57.40;;;;;;6245602;28;20045;-72
2020/12/02 08:22:01;;;;;;;12.35;5.82;;;9.30;57.10;;;;;;6260714;28;20650;-73
2020/12/02 08:25:26;;;;;;;8.70;4.55;;;9.30;57.10;;;;;;6246600;28;20036;-73
2020/12/02 08:28:33;;;;;;;6.85;4.03;;;9.30;57.10;;;;;;6257425;28;20033;-72
2020/12/02 08:31:36;;;;;;;8.63;4.03;;;9.30;56.90;;;;;;6245956;28;20080;-73
2020/12/02 08:34:37;;;;;;;6.53;3.47;;;9.20;56.60;;;;;;6240717;28;20113;-72
2020/12/02 08:37:38;;;;;;;9.07;4.38;;;9.20;56.60;;;;;;6260101;28;20087;-73
2020/12/02 08:40:42;;;;;;;10.27;4.13;;;9.20;56.60;;;;;;6257531;28;20039;-73
2020/12/02 08:43:47;;;;;;;6.18;3.20;;;9.10;56.60;;;;;;6260980;28;20630;-72
2020/12/02 08:46:54;;;;;;;5.65;3.40;;;9.10;56.60;;;;;;6274982;28;20044;-73
2020/12/02 08:49:55;;;;;;;7.90;4.07;;;9.00;56.50;;;;;;6243156;28;20114;-73
2020/12/02 08:52:58;;;;;;;8.82;3.88;;;9.00;56.50;;;;;;6258654;28;20041;-72
2020/12/02 08:55:59;;;;;;;8.25;3.55;;;9.00;56.50;;;;;;6245363;28;20064;-72
2020/12/02 08:59:03;;;;;;;6.07;3.47;;;9.00;56.50;;;;;;6242927;28;20068;-72
2020/12/02 09:02:11;;;;;;;7.53;3.35;;;9.00;56.50;;;;;;6244261;28;20044;-72
2020/12/02 09:05:12;;;;;;;5.57;2.53;;;9.00;56.50;;;;;;6271599;28;20068;-72
2020/12/02 09:08:12;;;;;;;6.68;3.13;;;8.90;56.30;;;;;;6241737;28;20060;-73
2020/12/02 09:11:23;;;;;;;7.82;3.10;;;8.90;56.40;;;;;;6234266;28;20512;-74
2020/12/02 09:14:23;;;;;;;7.20;3.53;;;8.80;56.40;;;;;;6239912;28;20033;-72
2020/12/02 09:17:25;;;;;;;7.20;3.47;;;8.80;56.40;;;;;;6246944;28;20033;-72
2020/12/02 09:20:26;;;;;;;7.15;3.83;;;8.80;56.50;;;;;;6273594;28;20137;-74
2020/12/02 09:23:27;;;;;;;7.10;3.45;;;8.80;56.40;;;;;;6241844;28;20362;-73
2020/12/02 09:26:36;;;;;;;7.25;3.53;;;8.90;56.50;;;;;;6243003;28;20037;-74
2020/12/02 09:29:38;;;;;;;;;;;8.80;56.40;;;;;;6243594;28;20566;-72
2020/12/02 09:32:39;;;;;;;7.28;3.60;;;8.90;56.30;;;;;;6262337;28;20361;-73
2020/12/02 09:35:40;;;;;;;9.07;3.78;;;8.90;56.20;;;;;;6221756;28;20033;-73
2020/12/02 09:38:41;;;;;;;5.47;3.22;;;8.90;56.80;;;;;;6217966;28;20437;-73
2020/12/02 09:41:51;;;;;;;8.73;3.95;;;8.90;56.20;;;;;;6240097;28;20037;-73
2020/12/02 09:45:05;;;;;;;6.70;3.15;;;8.90;56.00;;;;;;6257568;28;20053;-73
2020/12/02 09:48:17;;;;;;;5.35;2.78;;;9.00;56.10;;;;;;6256072;28;20030;-73
2020/12/02 09:51:22;;;;;;;6.70;3.90;;;8.90;56.10;;;;;;6241505;28;20025;-73
2020/12/02 09:54:26;;;;;;;7.88;4.05;;;8.90;56.10;;;;;;6243840;28;20340;-73
2020/12/02 09:57:30;;;;;;;7.63;3.25;;;8.90;56.10;;;;;;6244731;28;20145;-72
2020/12/02 10:00:31;;;;;;;6.55;3.25;;;8.90;56.20;;;;;;6256326;28;20033;-73
2020/12/02 10:04:09;;;;;;;7.50;4.53;;;9.00;56.00;;;;;;6243636;28;20053;-72
2020/12/02 10:07:23;;;;;;;6.15;3.50;;;9.00;56.00;;;;;;6172569;28;20125;-72
2020/12/02 10:10:38;;;;;;;7.07;3.13;;;9.00;55.90;;;;;;6161371;28;20330;-73
2020/12/02 10:13:44;;;;;;;9.63;3.28;;;9.00;55.80;;;;;;6194718;28;20038;-73
2020/12/02 10:17:08;;;;;;;8.25;3.22;;;9.00;55.70;;;;;;6179283;28;20112;-73
2020/12/02 10:20:28;;;;;;;6.78;3.67;;;8.80;55.50;;;;;;6159850;28;20057;-73
2020/12/02 10:23:41;;;;;;;;;;;8.90;55.70;;;;;;6170217;28;20050;-72
2020/12/02 10:26:56;;;;;;;7.40;3.45;;;8.90;55.70;;;;;;6145484;28;19918;-72
2020/12/02 10:30:22;;;;;;;5.43;2.90;;;8.90;55.60;;;;;;6170106;28;20046;-72
2020/12/02 10:33:34;;;;;;;6.75;3.63;;;8.90;55.60;;;;;;6168924;28;20043;-73
2020/12/02 10:36:41;;;;;;;6.22;3.38;;;8.90;55.60;;;;;;6155867;28;20472;-73
2020/12/02 10:39:42;;;;;;;7.00;3.15;;;9.00;55.60;;;;;;6165458;28;20042;-73
2020/12/02 10:43:09;;;;;;;8.35;3.92;;;9.00;55.60;;;;;;6165669;28;21003;-72
2020/12/02 10:46:23;;;;;;;5.88;3.20;;;9.00;55.70;;;;;;6161877;28;20042;-72
2020/12/02 10:49:29;;;;;;;5.30;2.90;;;9.00;55.50;;;;;;6164172;28;20039;-73
2020/12/02 10:52:31;;;;;;;8.70;3.65;;;9.00;55.40;;;;;;6181292;28;20039;-72
2020/12/02 10:55:35;;;;;;;5.68;3.83;;;9.00;55.20;;;;;;6171167;28;21744;-74
2020/12/02 10:58:37;;;;;;;8.52;3.17;;;9.00;55.20;;;;;;6210908;28;20038;-73
2020/12/02 11:01:40;;;;;;;8.90;4.20;;;9.10;55.30;;;;;;6220406;28;20960;-73
2020/12/02 11:04:41;;;;;;;6.78;4.28;;;9.10;55.30;;;;;;6221832;28;20050;-73
2020/12/02 11:07:58;;;;;;;6.55;3.58;;;9.10;55.10;;;;;;6220014;28;20834;-73
2020/12/02 11:11:18;;;;;;;6.70;3.50;;;9.10;55.10;;;;;;6219131;28;20030;-73
2020/12/02 11:14:55;;;;;;;9.57;3.67;;;9.00;55.00;;;;;;6217791;28;20333;-73
2020/12/02 11:18:21;;;;;;;7.72;3.78;;;9.10;55.10;;;;;;6260603;28;20048;-72
2020/12/02 11:21:40;;;;;;;8.55;3.40;;;9.10;55.00;;;;;;6232231;28;20076;-74
2020/12/02 11:24:50;;;;;;;7.25;3.03;;;9.10;54.90;;;;;;6218955;28;20116;-74
2020/12/02 11:27:53;;;;;;;6.60;3.33;;;9.10;55.00;;;;;;6255667;28;20045;-73
2020/12/02 11:31:08;;;;;;;6.25;3.60;;;9.10;54.90;;;;;;6218311;28;20355;-73
2020/12/02 11:34:45;;;;;;;4.88;2.83;;;9.00;54.90;;;;;;6217182;28;20030;-75
2020/12/02 11:38:02;;;;;;;9.18;3.50;;;9.00;54.90;;;;;;6234797;28;20363;-73
2020/12/02 11:41:12;;;;;;;8.27;3.50;;;9.00;54.80;;;;;;6274671;28;20112;-73
2020/12/02 11:44:29;;;;;;;4.40;2.80;;;8.90;54.80;;;;;;6242959;28;20494;-73
2020/12/02 11:47:53;;;;;;;7.30;3.10;;;8.90;54.90;;;;;;6259869;28;20467;-72
2020/12/02 11:51:34;;;;;;;5.35;2.05;;;8.80;55.00;;;;;;6237237;28;20462;-73
2020/12/02 11:54:34;;;;;;;5.57;2.73;;;8.80;55.00;;;;;;6190933;28;20034;-74
2020/12/02 11:57:36;;;;;;;6.18;3.22;;;8.80;55.00;;;;;;6179462;28;20039;-74
2020/12/02 12:00:36;;;;;;;5.78;3.03;;;8.80;55.00;;;;;;6197177;28;20034;-73
2020/12/02 12:04:18;;;;;;;5.80;2.58;;;8.80;55.10;;;;;;6187796;28;20124;-73
2020/12/02 12:07:54;;;;;;;6.57;3.08;;;8.70;55.10;;;;;;6147533;28;20046;-73
2020/12/02 12:11:01;;;;;;;3.58;2.03;;;8.70;55.20;;;;;;6130392;28;20389;-73
2020/12/02 12:14:29;;;;;;;6.68;2.78;;;8.70;55.10;;;;;;6146267;28;20464;-72
2020/12/02 12:17:40;;;;;;;5.65;2.78;;;8.70;55.20;;;;;;6131367;28;20440;-73
2020/12/02 12:20:49;;;;;;;5.57;3.00;;;8.70;55.30;;;;;;6148169;28;20050;-74
2020/12/02 12:23:57;;;;;;;6.78;3.45;;;8.70;55.50;;;;;;6134160;28;20047;-73
2020/12/02 12:26:58;;;;;;;18.63;3.17;;;8.70;55.50;;;;;;6150703;28;20035;-74
2020/12/02 12:29:59;;;;;;;7.88;3.63;;;8.70;55.50;;;;;;6139660;28;20153;-74
2020/12/02 12:33:19;;;;;;;8.27;3.80;;;8.70;55.40;;;;;;6174726;28;20038;-72
2020/12/02 12:36:21;;;;;;;7.00;3.95;;;8.70;55.40;;;;;;6173227;28;20419;-72
2020/12/02 12:39:29;;;;;;;6.28;3.40;;;8.60;55.50;;;;;;6176698;28;20101;-74
2020/12/02 12:42:31;;;;;;;4.60;2.55;;;8.60;55.60;;;;;;6213989;28;20048;-74
2020/12/02 12:45:44;;;;;;;6.28;3.05;;;8.60;55.60;;;;;;6222281;28;20200;-73
2020/12/02 12:48:46;;;;;;;5.32;3.03;;;8.60;55.60;;;;;;6235019;28;20045;-73
2020/12/02 12:51:47;;;;;;;8.57;3.03;;;8.60;55.70;;;;;;6275322;28;20044;-73
2020/12/02 12:54:52;;;;;;;6.35;3.00;;;8.60;55.70;;;;;;6266637;28;20041;-72
2020/12/02 12:57:58;;;;;;;7.00;3.03;;;8.60;55.80;;;;;;6258678;28;20051;-72
2020/12/02 13:01:02;;;;;;;4.00;2.60;;;8.60;55.80;;;;;;6237635;28;20136;-72
2020/12/02 13:04:06;;;;;;;7.00;2.30;;;8.60;55.80;;;;;;6220816;28;20364;-74
2020/12/02 13:07:38;;;;;;;6.13;3.35;;;8.60;56.00;;;;;;6231905;28;20103;-74
2020/12/02 13:10:52;;;;;;;6.05;3.17;;;8.60;56.10;;;;;;6249863;28;20045;-72
2020/12/02 13:14:05;;;;;;;6.57;3.28;;;8.60;56.10;;;;;;6242306;28;20033;-73
2020/12/02 13:17:18;;;;;;;5.40;3.20;;;8.50;56.20;;;;;;6236805;28;20099;-73
2020/12/02 13:20:28;;;;;;;5.43;3.03;;;8.50;56.30;;;;;;6233423;28;20104;-74
2020/12/02 13:23:39;;;;;;;6.03;2.97;;;8.50;56.50;;;;;;6221542;28;20537;-74
2020/12/02 13:26:41;;;;;;;5.55;3.45;;;8.50;56.40;;;;;;6211812;28;20505;-73
2020/12/02 13:29:44;;;;;;;5.05;2.83;;;8.50;56.50;;;;;;6249729;28;20378;-73
2020/12/02 13:32:56;;;;;;;5.78;3.10;;;8.50;56.50;;;;;;6239770;28;20344;-74
2020/12/02 13:35:57;;;;;;;5.80;2.75;;;8.50;56.60;;;;;;6242957;28;20033;-72
2020/12/02 13:38:59;;;;;;;3.92;2.47;;;8.40;56.60;;;;;;6218844;28;20088;-74
2020/12/02 13:42:01;;;;;;;6.22;3.28;;;8.50;56.80;;;;;;6221820;28;20042;-72
2020/12/02 13:45:34;;;;;;;5.00;3.20;;;8.40;56.80;;;;;;6231369;28;20084;-72
2020/12/02 13:48:35;;;;;;;7.10;3.33;;;8.50;56.90;;;;;;6236141;28;20076;-72
2020/12/02 13:51:47;;;;;;;8.43;3.47;;;8.50;56.80;;;;;;6239287;28;20029;-73
2020/12/02 13:54:56;;;;;;;6.25;2.75;;;8.50;56.80;;;;;;6221008;28;20030;-74
2020/12/02 13:58:12;;;;;;;5.78;2.80;;;8.50;56.90;;;;;;6222468;28;20052;-73
2020/12/02 14:01:19;;;;;;;6.03;3.40;;;8.50;56.80;;;;;;6238290;28;20032;-74
2020/12/02 14:04:31;;;;;;;9.90;3.45;;;8.50;56.70;;;;;;6223234;28;20421;-72
2020/12/02 14:07:33;;;;;;;5.15;2.22;;;8.50;56.70;;;;;;6240119;28;20044;-73
2020/12/02 14:10:35;;;;;;;8.38;3.22;;;8.50;56.60;;;;;;6211139;28;20037;-75
2020/12/02 14:13:37;;;;;;;5.43;3.35;;;8.60;56.60;;;;;;6223155;28;20232;-73
2020/12/02 14:16:40;;;;;;;5.43;2.72;;;8.60;56.70;;;;;;6220706;28;20148;-73
2020/12/02 14:19:41;;;;;;;6.10;3.60;;;8.50;56.70;;;;;;6219186;28;20025;-73
2020/12/02 14:27:00;;;;;;;5.80;2.78;;;8.60;56.60;;;;;;6186112;28;20038;-73
2020/12/02 14:30:10;;;;;;;7.28;2.33;;;8.60;56.60;;;;;;6185191;28;20046;-73
2020/12/02 14:33:15;;;;;;;4.65;3.17;;;8.60;56.60;;;;;;6192944;28;20451;-73
2020/12/02 14:36:16;;;;;;;4.93;2.72;;;8.60;56.50;;;;;;6177889;28;20050;-73
2020/12/02 14:39:17;;;;;;;8.40;3.25;;;8.60;56.40;;;;;;6225881;28;20481;-71
2020/12/02 14:42:20;;;;;;;4.57;3.45;;;8.60;56.50;;;;;;6192454;28;20039;-73
2020/12/02 14:45:21;;;;;;;8.25;3.65;;;8.60;56.50;;;;;;6185699;28;20487;-74
2020/12/02 14:48:23;;;;;;;5.93;3.33;;;8.60;56.60;;;;;;6189457;28;20408;-73
2020/12/02 14:51:23;;;;;;;8.52;3.65;;;8.60;56.60;;;;;;6208355;28;20057;-74
2020/12/02 14:54:25;;;;;;;5.68;3.08;;;8.60;56.60;;;;;;6195234;28;20134;-72
2020/12/02 14:58:01;;;;;;;5.53;3.33;;;8.60;56.50;;;;;;6196123;28;20390;-73
2020/12/02 15:01:07;;;;;;;4.95;2.78;;;8.60;56.60;;;;;;6190011;28;20476;-72
2020/12/02 15:04:09;;;;;;;6.70;3.80;;;8.60;56.60;;;;;;6220047;28;20057;-74
2020/12/02 15:07:51;;;;;;;6.25;3.42;;;8.60;56.70;;;;;;6212518;28;20095;-75
2020/12/02 15:10:56;;;;;;;5.18;3.55;;;8.60;56.70;;;;;;6174913;28;20456;-74
2020/12/02 15:13:58;;;;;;;4.55;3.15;;;8.60;56.70;;;;;;6191377;28;20438;-74
2020/12/02 15:17:04;;;;;;;6.07;3.67;;;8.60;56.70;;;;;;6192763;28;20030;-73
2020/12/02 15:20:05;;;;;;;8.32;3.80;;;8.60;56.90;;;;;;6171562;28;20124;-72
2020/12/02 15:23:22;;;;;;;9.82;3.90;;;8.60;56.90;;;;;;6217750;28;20049;-73
2020/12/02 15:26:23;;;;;;;6.88;3.45;;;8.70;56.90;;;;;;6200036;28;20038;-73
2020/12/02 15:29:24;;;;;;;5.22;2.75;;;8.70;56.90;;;;;;6201008;28;20119;-73
2020/12/02 15:32:28;;;;;;;7.13;3.60;;;8.70;57.60;;;;;;6234360;28;20120;-73
2020/12/02 15:35:29;;;;;;;6.57;3.63;;;8.70;57.10;;;;;;6218623;28;20042;-73
2020/12/02 15:38:40;;;;;;;7.63;3.38;;;8.60;57.20;;;;;;6185967;28;20045;-72
2020/12/02 15:42:11;;;;;;;6.35;3.47;;;8.70;57.30;;;;;;6215897;28;20033;-72
2020/12/02 15:45:29;;;;;;;6.80;3.70;;;8.70;57.30;;;;;;6233405;28;20121;-73
2020/12/02 15:48:32;;;;;;;4.78;3.42;;;8.70;57.30;;;;;;6177928;28;20078;-73
2020/12/02 15:51:44;;;;;;;6.22;2.95;;;8.70;57.20;;;;;;6233829;28;20085;-73
2020/12/02 15:55:22;;;;;;;6.43;3.88;;;8.70;57.30;;;;;;6208468;28;20030;-73
2020/12/02 15:58:32;;;;;;;4.78;3.08;;;8.70;57.20;;;;;;6242094;28;20125;-73
2020/12/02 16:01:36;;;;;;;7.47;3.60;;;8.70;57.10;;;;;;6194961;28;20049;-72
2020/12/02 16:04:44;;;;;;;6.50;3.45;;;8.70;57.10;;;;;;6226204;28;20039;-74
2020/12/02 16:12:13;;;;;;;6.07;3.50;;;8.70;57.10;;;;;;6194760;28;20376;-73
2020/12/02 16:15:17;;;;;;;5.38;2.72;;;8.70;57.10;;;;;;6194592;28;20073;-72
2020/12/02 16:18:18;;;;;;;8.43;4.25;;;8.70;57.20;;;;;;6185548;28;20042;-73
2020/12/02 16:21:44;;;;;;;6.38;3.72;;;8.60;57.20;;;;;;6206072;28;20053;-73
2020/12/02 16:24:46;;;;;;;9.48;3.88;;;8.60;57.30;;;;;;6215921;28;20371;-73
2020/12/02 16:27:47;;;;;;;8.20;3.38;;;8.60;57.50;;;;;;6219747;28;20034;-73
2020/12/02 16:30:49;;;;;;;6.75;3.80;;;8.60;57.60;;;;;;6203853;28;20050;-73
2020/12/02 16:33:51;;;;;;;9.15;4.53;;;8.60;57.70;;;;;;6250714;28;20026;-73